Edna, Iowa
Current Conditions -  °F | °C
As of 6:14 AM on Thursday 23 Oct 2014 (Local Time) from KLYV Reporting Station
Moderate Fog Moderate Fog  
Wind Chill: 50°   Ceiling: 200
Heat Index: 50°   Visibility: 0.25mi
Dew Point: 46°   Wind: 0mph
Humidity: 87%   Direction: NA
Pressure: 30.01"   Gusts: NA
Location:  43.4311°N, 96.1812°W
Report Text: KLYV 231114Z AUTO 00000KT 1/4SM FG OVC002 10/08 A3001 RMK AO2
Loading
Personal Weather Stations






























Interactive Weather Map
Tropical Storm Tracking
New forecast layout! Learn more

10-Day Weather Forecast

Advertisements
Track Severe Weather on mobile